Time;durP1;ratioP1;P1;durP2;ratioP2;P2;SDS_P1;SDS_P2;PMS_P1;PMS_P2;Temp;Humidity;BMP_temperature;BMP_pressure;BME280_temperature;BME280_humidity;BME280_pressure;Samples;Min_cycle;Max_cycle;Signal;HPM_P1;HPM_P2
2022/10/25 00:03:16;;;;;;;2.60;2.00;;;10.00;99.90;;;;;;8311008;28;20065;-84
2022/10/25 00:07:16;;;;;;;4.85;1.70;;;10.00;99.90;;;;;;8319608;28;20409;-84
2022/10/25 00:11:22;;;;;;;3.78;1.52;;;10.30;99.90;;;;;;8315231;28;20504;-84
2022/10/25 00:15:23;;;;;;;2.55;1.30;;;10.50;99.90;;;;;;8310001;28;20034;-84
2022/10/25 00:19:23;;;;;;;5.45;1.90;;;10.70;99.90;;;;;;8314594;28;20075;-84
2022/10/25 00:23:24;;;;;;;1.45;1.20;;;10.80;99.90;;;;;;8314998;28;20025;-84
2022/10/25 00:27:25;;;;;;;3.55;1.88;;;10.60;99.90;;;;;;8317860;28;20121;-84
2022/10/25 00:31:25;;;;;;;4.85;1.80;;;10.40;99.90;;;;;;8324744;28;20037;-83
2022/10/25 00:35:26;;;;;;;4.28;1.70;;;10.40;99.90;;;;;;8325136;28;20206;-83
2022/10/25 00:39:26;;;;;;;5.70;1.80;;;10.40;99.90;;;;;;8323548;28;20040;-84
2022/10/25 00:43:34;;;;;;;2.95;1.58;;;10.30;99.90;;;;;;8325756;28;20018;-84
2022/10/25 00:47:43;;;;;;;7.30;2.17;;;10.20;99.90;;;;;;8334524;28;20108;-84
2022/10/25 00:51:58;;;;;;;4.82;1.65;;;10.40;99.90;;;;;;8351613;28;20061;-83
2022/10/25 00:56:07;;;;;;;5.75;1.45;;;10.30;99.90;;;;;;8320155;28;20033;-83
2022/10/25 01:00:08;;;;;;;4.72;1.83;;;10.20;99.90;;;;;;8321851;28;20512;-83
2022/10/25 01:04:11;;;;;;;5.35;1.88;;;10.10;99.90;;;;;;8315656;28;20277;-82
2022/10/25 01:08:14;;;;;;;4.15;1.92;;;10.10;99.90;;;;;;8321799;28;20519;-82
2022/10/25 01:12:14;;;;;;;2.33;1.95;;;10.20;99.90;;;;;;8321830;28;20029;-83
2022/10/25 01:16:44;;;;;;;5.38;2.00;;;10.20;99.90;;;;;;8320509;28;20132;-83
2022/10/25 01:21:19;;;;;;;3.95;1.67;;;10.40;99.90;;;;;;8314597;28;20022;-83
2022/10/25 01:25:30;;;;;;;3.15;1.60;;;10.40;99.90;;;;;;8324000;28;20448;-82
2022/10/25 01:30:07;;;;;;;6.07;1.65;;;10.40;99.90;;;;;;8327957;28;20466;-83
2022/10/25 01:34:33;;;;;;;3.40;1.67;;;10.50;99.90;;;;;;8315100;28;20109;-83
2022/10/25 01:39:11;;;;;;;3.72;1.50;;;10.70;99.90;;;;;;8317845;28;20032;-82
2022/10/25 01:43:33;;;;;;;2.72;1.45;;;10.80;99.90;;;;;;8195368;28;20039;-83
2022/10/25 01:47:40;;;;;;;4.03;1.40;;;10.80;99.90;;;;;;8327217;28;20116;-83
2022/10/25 01:51:40;;;;;;;3.80;1.70;;;10.60;99.90;;;;;;8332517;28;20022;-82
2022/10/25 01:56:00;;;;;;;3.15;1.20;;;10.60;99.90;;;;;;8324347;28;20020;-83
2022/10/25 02:00:09;;;;;;;3.07;1.50;;;10.70;99.90;;;;;;8330134;28;20017;-83
2022/10/25 02:04:28;;;;;;;1.60;1.17;;;10.70;99.90;;;;;;8320249;28;20295;-83
2022/10/25 02:08:38;;;;;;;4.68;1.63;;;10.60;99.90;;;;;;8324703;28;20482;-83
2022/10/25 02:12:55;;;;;;;4.07;1.40;;;10.60;99.90;;;;;;8321618;28;20022;-81
2022/10/25 02:17:02;;;;;;;3.80;1.30;;;10.60;99.90;;;;;;8320774;28;20299;-83
2022/10/25 02:21:04;;;;;;;1.90;1.20;;;10.70;99.90;;;;;;8326359;28;20113;-81
2022/10/25 02:25:08;;;;;;;4.22;1.75;;;10.80;99.90;;;;;;8311709;28;20025;-83
2022/10/25 02:29:10;;;;;;;1.77;1.10;;;10.70;99.90;;;;;;8321066;28;20022;-83
2022/10/25 02:33:11;;;;;;;2.13;1.50;;;10.60;99.90;;;;;;8315769;28;20022;-83
2022/10/25 02:37:11;;;;;;;3.83;1.20;;;10.60;99.90;;;;;;8318596;28;20021;-84
2022/10/25 02:41:13;;;;;;;3.47;1.38;;;10.50;99.90;;;;;;8309223;28;20033;-83
2022/10/25 02:45:13;;;;;;;4.03;1.30;;;10.40;99.90;;;;;;8314124;28;20113;-83
2022/10/25 02:49:14;;;;;;;9.43;1.50;;;10.30;99.90;;;;;;8318253;28;20029;-83
2022/10/25 02:53:14;;;;;;;3.22;1.30;;;10.30;99.90;;;;;;8323861;28;20029;-84
2022/10/25 02:57:15;;;;;;;3.63;1.48;;;10.20;99.90;;;;;;8308395;28;20486;-84
2022/10/25 03:01:17;;;;;;;2.13;1.30;;;10.30;99.90;;;;;;8318223;28;20029;-83
2022/10/25 03:05:18;;;;;;;3.45;1.27;;;10.30;99.90;;;;;;8308994;28;20028;-83
2022/10/25 03:09:19;;;;;;;4.32;1.30;;;10.30;99.90;;;;;;8315879;28;20484;-84
2022/10/25 03:13:19;;;;;;;3.08;1.65;;;10.10;99.90;;;;;;8306679;28;20018;-82
2022/10/25 03:17:20;;;;;;;3.10;1.50;;;10.30;99.90;;;;;;8321998;28;20032;-83
2022/10/25 03:21:20;;;;;;;4.82;1.58;;;10.20;99.90;;;;;;8312116;28;20033;-83
2022/10/25 03:25:21;;;;;;;1.95;1.42;;;10.30;99.90;;;;;;8327120;28;20031;-83
2022/10/25 03:29:21;;;;;;;3.25;1.88;;;10.20;99.90;;;;;;8323851;28;20397;-83
2022/10/25 03:33:23;;;;;;;6.47;1.67;;;10.40;99.90;;;;;;8331083;28;20033;-83
2022/10/25 03:37:23;;;;;;;2.85;1.88;;;10.30;99.90;;;;;;8321232;28;20026;-83
2022/10/25 03:41:24;;;;;;;2.72;1.60;;;10.20;99.90;;;;;;8316885;28;20057;-82
2022/10/25 03:45:24;;;;;;;3.58;1.58;;;10.20;99.90;;;;;;8323022;28;20026;-84
2022/10/25 03:49:25;;;;;;;4.97;2.03;;;10.00;99.90;;;;;;8323726;28;20487;-84
2022/10/25 03:53:26;;;;;;;3.35;1.90;;;10.20;99.90;;;;;;8330427;28;20022;-85
2022/10/25 03:57:26;;;;;;;5.30;1.95;;;10.20;99.90;;;;;;8327936;28;20089;-84
2022/10/25 04:01:27;;;;;;;2.15;1.73;;;10.10;99.90;;;;;;8331830;28;20049;-84
2022/10/25 04:05:28;;;;;;;4.72;1.75;;;10.10;99.90;;;;;;8323549;28;20450;-84
2022/10/25 04:09:28;;;;;;;3.67;1.80;;;10.20;99.90;;;;;;8314895;28;20028;-84
2022/10/25 04:13:29;;;;;;;4.03;1.60;;;10.20;99.90;;;;;;8329336;28;20018;-84
2022/10/25 04:17:29;;;;;;;2.45;1.88;;;10.30;99.90;;;;;;8328578;28;20033;-84
2022/10/25 04:21:30;;;;;;;3.92;1.70;;;10.40;99.90;;;;;;8331046;28;20036;-84
2022/10/25 04:25:30;;;;;;;2.30;1.80;;;10.40;99.90;;;;;;8337378;28;20024;-84
2022/10/25 04:29:31;;;;;;;2.65;1.95;;;10.30;99.90;;;;;;8319740;28;20033;-84
2022/10/25 04:33:31;;;;;;;3.35;2.10;;;10.20;99.90;;;;;;8324395;28;20112;-84
2022/10/25 04:37:32;;;;;;;4.38;2.20;;;10.20;99.90;;;;;;8328029;28;20079;-84
2022/10/25 04:41:33;;;;;;;5.10;2.50;;;10.30;99.90;;;;;;8319632;28;20366;-84
2022/10/25 04:45:33;;;;;;;4.45;2.10;;;10.40;99.90;;;;;;8313244;28;20494;-85
2022/10/25 04:49:34;;;;;;;4.43;2.40;;;10.60;99.90;;;;;;8315754;28;20022;-84
2022/10/25 04:53:34;;;;;;;5.20;2.25;;;10.60;99.90;;;;;;8312868;28;20025;-84
2022/10/25 04:57:35;;;;;;;3.63;2.40;;;10.70;99.90;;;;;;8329451;28;20071;-84
2022/10/25 05:01:35;;;;;;;4.95;2.70;;;10.80;99.90;;;;;;8308007;28;20173;-84
2022/10/25 05:05:36;;;;;;;4.88;2.40;;;10.90;99.90;;;;;;8323419;28;20547;-84
2022/10/25 05:09:37;;;;;;;3.67;2.00;;;10.90;99.90;;;;;;8313807;28;20021;-84
2022/10/25 05:13:38;;;;;;;4.13;2.20;;;10.90;99.90;;;;;;8321977;28;20029;-84
2022/10/25 05:17:39;;;;;;;3.08;2.20;;;10.80;99.90;;;;;;8313983;28;20500;-83
2022/10/25 05:21:39;;;;;;;4.13;2.15;;;10.60;99.90;;;;;;8309337;28;20022;-84
2022/10/25 05:25:40;;;;;;;5.85;2.10;;;10.60;99.90;;;;;;8315997;28;20423;-83
2022/10/25 05:29:41;;;;;;;4.57;2.20;;;10.30;99.90;;;;;;8320936;28;20533;-84
2022/10/25 05:33:46;;;;;;;3.85;2.17;;;10.20;99.90;;;;;;8315113;28;20030;-84
2022/10/25 05:37:46;;;;;;;4.53;2.33;;;10.10;99.90;;;;;;8321328;28;20029;-84
2022/10/25 05:41:48;;;;;;;6.50;2.33;;;10.10;99.90;;;;;;8319403;28;20388;-84
2022/10/25 05:45:49;;;;;;;3.40;2.22;;;10.10;99.90;;;;;;8315367;28;20554;-84
2022/10/25 05:49:50;;;;;;;5.47;2.63;;;9.90;99.90;;;;;;8313922;28;20481;-82
2022/10/25 05:53:52;;;;;;;5.13;2.20;;;9.80;99.90;;;;;;8309323;28;20025;-83
2022/10/25 05:57:53;;;;;;;4.10;2.22;;;9.70;99.90;;;;;;8307914;28;20026;-84
2022/10/25 06:01:53;;;;;;;6.43;2.38;;;9.70;99.90;;;;;;8316678;28;20040;-84
2022/10/25 06:06:02;;;;;;;6.35;2.38;;;9.90;99.90;;;;;;8319051;28;20038;-84
2022/10/25 06:10:03;;;;;;;4.75;2.42;;;10.00;99.90;;;;;;8314344;28;20022;-82
2022/10/25 06:14:05;;;;;;;4.13;2.00;;;9.90;99.90;;;;;;8311410;28;20022;-84
2022/10/25 06:18:05;;;;;;;7.47;2.50;;;9.90;99.90;;;;;;8315085;28;20435;-84
2022/10/25 06:22:06;;;;;;;4.90;2.50;;;9.90;99.90;;;;;;8312821;28;20025;-84
2022/10/25 06:26:09;;;;;;;5.55;2.60;;;9.80;99.90;;;;;;8326461;28;20033;-84
2022/10/25 06:30:10;;;;;;;5.78;2.20;;;10.00;99.90;;;;;;8325575;28;20072;-84
2022/10/25 06:34:10;;;;;;;7.80;2.83;;;9.90;99.90;;;;;;8308555;28;20022;-84
2022/10/25 06:38:11;;;;;;;4.50;2.40;;;9.80;99.90;;;;;;8305702;28;20029;-84
2022/10/25 06:42:11;;;;;;;5.15;2.38;;;9.70;99.90;;;;;;8314519;28;20571;-84
2022/10/25 06:46:17;;;;;;;3.45;2.17;;;9.80;99.90;;;;;;8305442;28;20032;-84
2022/10/25 06:50:17;;;;;;;3.75;2.05;;;9.70;99.90;;;;;;8312922;28;20478;-84
2022/10/25 06:54:18;;;;;;;5.45;2.10;;;9.50;99.90;;;;;;8302550;28;20022;-84
2022/10/25 06:58:18;;;;;;;3.88;2.30;;;9.40;99.90;;;;;;8309899;28;20018;-84
2022/10/25 07:02:19;;;;;;;7.00;2.50;;;9.40;99.90;;;;;;8304143;28;20046;-84
2022/10/25 07:06:34;;;;;;;4.38;2.88;;;9.30;99.90;;;;;;8317150;28;20025;-84
2022/10/25 07:10:34;;;;;;;3.10;2.22;;;9.40;99.90;;;;;;8327048;28;20505;-84
2022/10/25 07:14:35;;;;;;;3.05;2.03;;;9.60;99.90;;;;;;8312485;28;20025;-84
2022/10/25 07:18:36;;;;;;;5.95;2.72;;;9.50;99.90;;;;;;8310903;28;20359;-84
2022/10/25 07:22:36;;;;;;;7.88;1.98;;;9.50;99.90;;;;;;8306104;28;20474;-84
2022/10/25 07:26:37;;;;;;;3.65;2.00;;;9.80;99.90;;;;;;8308012;28;20017;-85
2022/10/25 07:30:44;;;;;;;6.10;2.08;;;9.70;99.90;;;;;;8314785;28;20018;-84
2022/10/25 07:34:44;;;;;;;6.45;2.00;;;9.70;99.90;;;;;;8332686;28;20013;-84
2022/10/25 07:38:45;;;;;;;3.17;1.83;;;9.90;99.90;;;;;;8325340;28;20115;-84
2022/10/25 07:42:48;;;;;;;5.60;2.30;;;10.20;99.90;;;;;;8313443;28;20445;-83
2022/10/25 07:46:50;;;;;;;5.75;2.45;;;10.20;99.90;;;;;;8313740;28;20456;-84
2022/10/25 07:50:51;;;;;;;4.03;2.22;;;10.30;99.90;;;;;;8325110;28;20034;-84
2022/10/25 07:54:52;;;;;;;7.03;2.42;;;10.40;99.90;;;;;;8336613;28;20436;-83
2022/10/25 07:58:52;;;;;;;8.13;2.80;;;10.50;99.90;;;;;;8327083;28;20022;-84
2022/10/25 08:02:53;;;;;;;7.30;3.17;;;10.50;99.90;;;;;;8314055;28;20032;-84
2022/10/25 08:06:53;;;;;;;6.78;3.15;;;10.70;99.90;;;;;;8319718;28;20029;-84
2022/10/25 08:10:54;;;;;;;4.57;2.55;;;11.10;99.90;;;;;;8320716;28;20029;-84
2022/10/25 08:14:55;;;;;;;8.65;2.63;;;11.50;99.90;;;;;;8319968;28;20389;-84
2022/10/25 08:18:55;;;;;;;5.78;2.63;;;11.60;99.90;;;;;;8311386;28;20037;-84
2022/10/25 08:22:57;;;;;;;6.05;2.95;;;11.50;99.90;;;;;;8320821;28;20030;-84
2022/10/25 08:26:58;;;;;;;5.38;3.22;;;11.40;99.90;;;;;;8324061;28;20026;-84
2022/10/25 08:30:59;;;;;;;3.53;2.63;;;11.40;99.90;;;;;;8326143;28;20041;-84
2022/10/25 08:35:00;;;;;;;3.47;2.20;;;12.10;99.90;;;;;;8311553;28;20117;-84
2022/10/25 08:39:00;;;;;;;5.57;2.47;;;12.50;99.90;;;;;;8323934;28;20441;-84
2022/10/25 08:43:50;;;;;;;6.30;2.42;;;12.70;99.90;;;;;;8313381;28;20032;-84
2022/10/25 08:47:52;;;;;;;3.90;2.15;;;12.60;99.90;;;;;;8264343;28;20592;-84
2022/10/25 08:51:55;;;;;;;8.02;2.10;;;12.80;99.90;;;;;;8322166;28;20386;-85
2022/10/25 08:55:57;;;;;;;4.55;1.88;;;12.90;99.90;;;;;;8324268;28;20026;-84
2022/10/25 09:00:06;;;;;;;3.13;1.70;;;13.10;99.90;;;;;;8320077;28;20475;-84
2022/10/25 09:04:06;;;;;;;6.47;1.50;;;13.60;99.90;;;;;;8306669;28;20022;-84
2022/10/25 09:08:09;;;;;;;5.53;1.52;;;14.20;99.90;;;;;;8309084;28;20061;-84
2022/10/25 09:12:26;;;;;;;4.18;1.60;;;14.70;99.90;;;;;;8311459;28;20029;-85
2022/10/25 09:16:35;;;;;;;6.10;1.70;;;15.30;99.90;;;;;;8318247;28;20022;-85
2022/10/25 09:20:50;;;;;;;4.88;1.50;;;15.70;99.90;;;;;;8309534;28;20101;-85
2022/10/25 09:25:14;;;;;;;3.97;1.25;;;16.00;99.90;;;;;;8319835;28;20025;-84
2022/10/25 09:29:23;;;;;;;2.47;1.20;;;15.80;99.90;;;;;;8329041;28;20782;-85
2022/10/25 09:33:29;;;;;;;6.07;2.00;;;16.00;99.90;;;;;;8323337;28;20440;-85
2022/10/25 09:38:03;;;;;;;3.75;1.30;;;16.40;99.90;;;;;;8309867;28;20022;-85
2022/10/25 09:42:06;;;;;;;2.33;1.00;;;16.70;99.90;;;;;;8231648;28;20552;-84
2022/10/25 09:46:24;;;;;;;2.17;1.15;;;16.90;99.90;;;;;;8314715;28;20108;-84
2022/10/25 09:50:52;;;;;;;3.03;1.10;;;17.40;99.90;;;;;;8315752;28;20027;-85
2022/10/25 09:55:22;;;;;;;4.30;1.10;;;18.10;99.90;;;;;;8314226;28;20400;-85
2022/10/25 09:59:23;;;;;;;2.33;0.80;;;18.90;99.90;;;;;;8314695;28;20022;-85
2022/10/25 10:03:29;;;;;;;2.42;1.00;;;19.50;99.90;;;;;;8320033;28;20057;-84
2022/10/25 10:07:34;;;;;;;2.92;0.90;;;19.40;99.90;;;;;;8325938;28;20108;-84
2022/10/25 10:11:36;;;;;;;3.97;0.98;;;18.10;99.90;;;;;;8316994;28;20025;-85
2022/10/25 10:15:43;;;;;;;3.35;1.00;;;17.70;99.90;;;;;;8313476;28;20391;-85
2022/10/25 10:20:03;;;;;;;3.47;1.17;;;17.50;99.90;;;;;;8312829;28;20462;-85
2022/10/25 10:24:05;;;;;;;5.50;0.90;;;17.50;99.90;;;;;;8303499;28;20113;-84
2022/10/25 10:28:13;;;;;;;1.83;1.05;;;17.70;99.90;;;;;;8317382;28;20056;-84
2022/10/25 10:32:26;;;;;;;3.38;0.70;;;17.90;99.90;;;;;;8321137;28;20501;-84
2022/10/25 10:36:29;;;;;;;2.80;0.93;;;18.20;99.90;;;;;;8325821;28;20053;-84
2022/10/25 10:40:30;;;;;;;5.38;1.10;;;18.40;99.90;;;;;;8316914;28;20254;-84
2022/10/25 10:44:35;;;;;;;2.33;1.00;;;18.80;99.90;;;;;;8320546;28;20082;-88
2022/10/25 10:48:40;;;;;;;3.22;0.98;;;20.00;99.90;;;;;;8314573;28;20022;-89
2022/10/25 10:52:43;;;;;;;3.25;1.00;;;21.10;99.90;;;;;;8317084;28;20025;-88
2022/10/25 10:56:56;;;;;;;2.75;0.60;;;22.00;99.90;;;;;;8303780;28;20441;-88
2022/10/25 11:00:59;;;;;;;4.38;0.90;;;22.20;99.90;;;;;;8315726;28;20053;-89
2022/10/25 11:05:00;;;;;;;3.33;0.80;;;22.90;99.90;;;;;;8316029;28;20038;-90
2022/10/25 11:09:14;;;;;;;5.68;1.02;;;23.50;99.90;;;;;;8323264;28;20064;-87
2022/10/25 11:13:17;;;;;;;4.35;0.80;;;24.20;99.90;;;;;;8310959;28;20033;-91
2022/10/25 11:17:26;;;;;;;4.22;1.25;;;23.80;99.90;;;;;;8306983;28;20022;-89
2022/10/25 11:22:15;;;;;;;3.05;0.88;;;24.30;99.90;;;;;;8336669;28;20085;-88
2022/10/25 11:26:25;;;;;;;3.45;1.15;;;25.30;99.90;;;;;;8322641;28;20115;-89
2022/10/25 11:30:30;;;;;;;;;;;25.20;99.90;;;;;;8319593;28;20397;-88
2022/10/25 11:34:47;;;;;;;2.53;0.75;;;24.70;99.90;;;;;;8308981;28;19920;-89
2022/10/25 11:39:12;;;;;;;2.58;0.90;;;24.30;99.90;;;;;;8315201;28;20029;-89
2022/10/25 11:43:32;;;;;;;4.20;1.25;;;25.20;99.90;;;;;;8318030;28;20018;-90
2022/10/25 11:47:42;;;;;;;;;;;25.20;99.90;;;;;;8310748;28;20021;-90
2022/10/25 11:52:08;;;;;;;2.63;0.80;;;25.40;99.90;;;;;;8311489;28;19910;-89
2022/10/25 11:56:31;;;;;;;3.03;0.93;;;25.80;98.60;;;;;;8311169;28;20035;-90
2022/10/25 12:00:51;;;;;;;2.13;1.02;;;26.20;97.90;;;;;;8319717;28;20025;-90
2022/10/25 12:05:00;;;;;;;3.30;1.55;;;26.50;94.70;;;;;;8307960;28;20022;-89
2022/10/25 12:09:15;;;;;;;3.05;1.10;;;26.40;95.50;;;;;;8303959;28;20038;-90
2022/10/25 12:13:25;;;;;;;3.80;1.30;;;25.10;96.70;;;;;;8310148;28;20034;-90
2022/10/25 12:17:31;;;;;;;5.32;1.08;;;23.20;99.90;;;;;;8308011;28;20029;-89
2022/10/25 12:21:41;;;;;;;4.10;1.20;;;22.70;98.50;;;;;;8314298;28;20037;-89
2022/10/25 12:25:46;;;;;;;3.03;1.30;;;21.20;99.90;;;;;;8326443;28;20060;-88
2022/10/25 12:29:54;;;;;;;4.72;1.50;;;19.80;99.90;;;;;;8315798;28;20493;-88
2022/10/25 12:34:20;;;;;;;3.63;1.23;;;19.00;99.90;;;;;;8314024;28;20104;-90
2022/10/25 12:38:34;;;;;;;6.75;2.50;;;18.40;99.90;;;;;;8317796;28;20037;-89
2022/10/25 12:42:56;;;;;;;3.17;0.90;;;18.10;99.90;;;;;;8319761;28;20017;-89
2022/10/25 12:47:28;;;;;;;2.90;0.90;;;17.90;99.90;;;;;;8320469;28;20018;-87
2022/10/25 12:51:43;;;;;;;3.83;1.38;;;17.60;99.90;;;;;;8306622;28;20228;-90
2022/10/25 12:56:01;;;;;;;3.33;1.55;;;17.60;99.90;;;;;;8311627;28;20014;-88
2022/10/25 13:00:18;;;;;;;2.83;1.40;;;17.50;99.90;;;;;;8323701;28;20026;-89
2022/10/25 13:04:59;;;;;;;2.90;0.88;;;17.50;99.90;;;;;;8313805;28;20140;-88
2022/10/25 13:09:07;;;;;;;1.58;0.77;;;17.80;99.90;;;;;;8289730;28;20042;-89
2022/10/25 13:13:22;;;;;;;1.73;0.65;;;17.80;99.90;;;;;;8316361;28;20030;-88
2022/10/25 13:17:22;;;;;;;2.85;0.70;;;17.60;99.90;;;;;;8318161;28;20026;-90
2022/10/25 13:21:51;;;;;;;2.28;0.93;;;17.60;99.90;;;;;;8325767;28;20037;-90
2022/10/25 13:25:51;;;;;;;2.75;0.80;;;17.30;99.90;;;;;;8323365;28;20028;-90
2022/10/25 13:30:03;;;;;;;3.60;0.98;;;17.30;99.90;;;;;;8317728;28;20026;-90
2022/10/25 13:34:13;;;;;;;2.38;0.95;;;17.40;99.90;;;;;;8320673;28;20018;-90
2022/10/25 13:38:20;;;;;;;3.50;1.13;;;17.40;99.90;;;;;;8318300;28;20018;-90
2022/10/25 13:42:31;;;;;;;5.00;0.82;;;17.70;99.90;;;;;;8320899;28;20026;-90
2022/10/25 13:46:36;;;;;;;2.72;0.85;;;17.70;99.90;;;;;;8317705;28;20017;-91
2022/10/25 13:50:53;;;;;;;2.65;0.73;;;17.80;99.90;;;;;;8320614;28;20018;-90
2022/10/25 13:54:55;;;;;;;1.25;0.68;;;17.90;99.90;;;;;;8316447;28;20387;-90
2022/10/25 13:58:58;;;;;;;5.40;0.90;;;17.90;99.90;;;;;;8325156;28;20095;-90
2022/10/25 14:03:06;;;;;;;2.25;0.70;;;18.10;99.90;;;;;;8325726;28;20087;-90
2022/10/25 14:07:45;;;;;;;1.48;0.63;;;18.00;99.90;;;;;;8317691;28;20608;-90
2022/10/25 14:11:51;;;;;;;2.35;0.82;;;17.90;99.90;;;;;;8315845;28;20052;-89
2022/10/25 14:15:58;;;;;;;4.47;0.98;;;17.80;99.90;;;;;;8313127;28;20017;-90
2022/10/25 14:20:21;;;;;;;3.60;0.85;;;17.60;99.90;;;;;;8316322;28;20033;-89
2022/10/25 14:24:22;;;;;;;3.20;0.73;;;17.70;99.90;;;;;;8310888;28;20029;-90
2022/10/25 14:28:28;;;;;;;3.10;0.95;;;17.30;99.90;;;;;;8317977;28;20031;-90
2022/10/25 14:32:28;;;;;;;1.92;0.80;;;17.50;99.90;;;;;;8311882;28;20022;-90
2022/10/25 14:36:35;;;;;;;1.98;0.70;;;17.30;99.90;;;;;;8318929;28;20032;-90
2022/10/25 14:40:36;;;;;;;2.72;0.95;;;17.00;99.90;;;;;;8304256;28;20060;-90
2022/10/25 14:44:46;;;;;;;2.38;1.00;;;16.80;99.90;;;;;;8316818;28;20034;-90
2022/10/25 14:48:48;;;;;;;47.47;15.18;;;16.60;99.90;;;;;;8310965;28;20413;-91
2022/10/25 14:52:51;;;;;;;22.13;7.50;;;16.50;99.90;;;;;;8318199;28;20082;-91
2022/10/25 14:57:07;;;;;;;7.95;3.28;;;16.30;99.90;;;;;;8324195;28;20036;-91
2022/10/25 15:01:10;;;;;;;6.97;2.88;;;16.10;99.90;;;;;;8321759;28;20405;-91
2022/10/25 15:05:21;;;;;;;9.48;2.70;;;15.90;99.90;;;;;;8336730;28;20030;-91
2022/10/25 15:09:21;;;;;;;6.32;1.70;;;15.70;99.90;;;;;;8339139;28;20046;-92
2022/10/25 15:13:31;;;;;;;2.83;0.98;;;15.60;99.90;;;;;;8323068;28;20037;-92
2022/10/25 15:17:31;;;;;;;3.15;0.82;;;15.50;99.90;;;;;;8321966;28;20494;-92
2022/10/25 15:21:40;;;;;;;2.83;1.10;;;15.30;99.90;;;;;;8315222;28;20079;-92
2022/10/25 15:25:40;;;;;;;2.20;0.90;;;15.30;99.90;;;;;;8314479;28;20030;-92
2022/10/25 15:29:41;;;;;;;2.83;0.95;;;15.20;99.90;;;;;;8310343;28;20084;-93
2022/10/25 15:33:42;;;;;;;4.15;1.17;;;14.90;99.90;;;;;;8303483;28;20021;-93
2022/10/25 15:37:42;;;;;;;1.90;0.77;;;14.70;99.90;;;;;;8306850;28;20025;-93
2022/10/25 15:41:43;;;;;;;5.43;0.98;;;14.60;99.90;;;;;;8309474;28;20034;-92
2022/10/25 15:45:44;;;;;;;2.15;1.25;;;14.50;99.90;;;;;;8311064;28;20045;-92
2022/10/25 15:49:44;;;;;;;2.13;1.00;;;14.30;99.90;;;;;;8310175;28;20476;-93
2022/10/25 15:53:45;;;;;;;5.63;1.70;;;14.20;99.90;;;;;;8317181;28;20025;-92
2022/10/25 15:57:46;;;;;;;5.50;4.00;;;14.00;99.90;;;;;;8313122;28;20025;-92
2022/10/25 16:01:50;;;;;;;3.20;1.70;;;13.80;99.90;;;;;;8325723;28;20037;-92
2022/10/25 16:05:51;;;;;;;8.98;4.97;;;13.50;99.90;;;;;;8311747;28;20025;-92
2022/10/25 16:09:52;;;;;;;6.90;1.50;;;13.20;99.90;;;;;;8313686;28;20440;-92
2022/10/25 16:13:53;;;;;;;5.85;2.47;;;12.90;99.90;;;;;;8314622;28;20120;-92
2022/10/25 16:17:53;;;;;;;9.35;1.58;;;12.60;99.90;;;;;;8319390;28;20640;-92
2022/10/25 16:21:54;;;;;;;6.35;2.47;;;12.30;99.90;;;;;;8330845;28;20033;-92
2022/10/25 16:25:55;;;;;;;8.15;2.67;;;12.10;99.90;;;;;;8318035;28;20033;-92
2022/10/25 16:29:55;;;;;;;5.07;2.42;;;12.00;99.90;;;;;;8322199;28;20038;-92
2022/10/25 16:33:56;;;;;;;5.45;3.15;;;12.00;99.90;;;;;;8327357;28;20021;-92
2022/10/25 16:37:56;;;;;;;14.35;4.85;;;11.70;99.90;;;;;;8332794;28;20121;-92
2022/10/25 16:41:57;;;;;;;19.63;7.18;;;11.40;99.90;;;;;;8321936;28;20029;-92
2022/10/25 16:45:58;;;;;;;19.90;10.00;;;11.20;99.90;;;;;;8327512;28;20060;-92
2022/10/25 16:49:58;;;;;;;12.77;6.32;;;11.30;99.90;;;;;;8328799;28;20034;-92
2022/10/25 16:53:59;;;;;;;10.90;4.60;;;11.40;99.90;;;;;;8324782;28;20033;-93
2022/10/25 16:58:00;;;;;;;6.07;4.00;;;11.30;99.90;;;;;;8326998;28;20033;-93
2022/10/25 17:02:01;;;;;;;3.63;1.85;;;11.10;99.90;;;;;;8321041;28;20037;-92
2022/10/25 17:06:04;;;;;;;7.88;2.60;;;10.90;99.90;;;;;;8316501;28;20497;-92
2022/10/25 17:10:05;;;;;;;7.85;3.15;;;10.80;99.90;;;;;;8313885;28;20029;-93
2022/10/25 17:14:08;;;;;;;6.05;2.90;;;10.70;99.90;;;;;;8311051;28;20021;-92
2022/10/25 17:18:11;;;;;;;5.78;2.45;;;10.60;99.90;;;;;;8318377;28;20026;-92
2022/10/25 17:22:11;;;;;;;4.75;2.10;;;10.50;99.90;;;;;;8315846;28;20025;-92
2022/10/25 17:26:12;;;;;;;12.02;1.80;;;10.40;99.90;;;;;;8310579;28;20560;-92
2022/10/25 17:30:15;;;;;;;5.22;1.85;;;10.40;99.90;;;;;;8310486;28;20032;-92
2022/10/25 17:34:16;;;;;;;5.38;2.40;;;10.20;99.90;;;;;;8317098;28;20405;-92
2022/10/25 17:38:17;;;;;;;8.00;2.78;;;10.20;99.90;;;;;;8309227;28;20041;-91
2022/10/25 17:42:19;;;;;;;6.10;3.05;;;10.10;99.90;;;;;;8310875;28;20034;-92
2022/10/25 17:46:22;;;;;;;12.90;3.72;;;9.90;99.90;;;;;;8327638;28;20112;-92
2022/10/25 17:50:23;;;;;;;10.23;4.60;;;9.90;99.90;;;;;;8320962;28;20489;-92
2022/10/25 17:54:24;;;;;;;8.82;4.57;;;9.80;99.90;;;;;;8323416;28;20097;-91
2022/10/25 17:58:24;;;;;;;14.32;4.43;;;9.60;99.90;;;;;;8321077;28;20034;-92
2022/10/25 18:02:25;;;;;;;10.15;3.88;;;9.50;99.90;;;;;;8320162;28;20045;-92
2022/10/25 18:06:26;;;;;;;10.30;3.88;;;9.50;99.90;;;;;;8318324;28;20040;-92
2022/10/25 18:10:26;;;;;;;6.57;3.42;;;9.50;99.90;;;;;;8316071;28;20658;-92
2022/10/25 18:14:27;;;;;;;11.57;4.80;;;9.30;99.90;;;;;;8314597;28;20030;-91
2022/10/25 18:18:28;;;;;;;9.90;4.65;;;9.30;99.90;;;;;;8314633;28;20028;-92
2022/10/25 18:22:29;;;;;;;11.43;6.40;;;9.10;99.90;;;;;;8321339;28;20087;-93
2022/10/25 18:26:31;;;;;;;11.80;7.60;;;9.20;99.90;;;;;;8330191;28;20033;-92
2022/10/25 18:30:32;;;;;;;18.48;11.38;;;8.90;99.90;;;;;;8314514;28;20474;-92
2022/10/25 18:34:33;;;;;;;14.68;9.85;;;9.20;99.90;;;;;;8320221;28;20418;-91
2022/10/25 18:38:34;;;;;;;15.60;9.75;;;9.20;99.90;;;;;;8311610;28;20036;-91
2022/10/25 18:42:34;;;;;;;17.73;9.77;;;9.10;99.90;;;;;;8356207;28;20093;-89
2022/10/25 18:46:35;;;;;;;10.07;6.03;;;9.00;99.90;;;;;;8337631;28;20389;-91
2022/10/25 18:50:37;;;;;;;12.50;6.05;;;8.80;99.90;;;;;;8323557;28;20036;-91
2022/10/25 18:54:37;;;;;;;16.33;6.32;;;8.60;99.90;;;;;;8308935;28;20018;-91
2022/10/25 18:58:38;;;;;;;10.77;6.45;;;8.60;99.90;;;;;;8323322;28;20508;-91
2022/10/25 19:02:39;;;;;;;15.80;6.80;;;8.50;99.90;;;;;;8322960;28;20041;-91
2022/10/25 19:06:39;;;;;;;14.75;8.20;;;8.40;99.90;;;;;;8315011;28;20112;-91
2022/10/25 19:10:41;;;;;;;10.52;8.02;;;8.30;99.90;;;;;;8313895;28;20034;-91
2022/10/25 19:14:41;;;;;;;14.25;7.70;;;8.50;99.90;;;;;;8319033;28;20017;-91
2022/10/25 19:18:42;;;;;;;17.45;7.85;;;8.40;99.90;;;;;;8322698;28;20022;-91
2022/10/25 19:22:44;;;;;;;13.38;7.78;;;8.40;99.90;;;;;;8322748;28;20649;-91
2022/10/25 19:26:44;;;;;;;15.00;7.68;;;8.40;99.90;;;;;;8325089;28;20029;-91
2022/10/25 19:30:45;;;;;;;15.77;8.48;;;8.40;99.90;;;;;;8320809;28;20030;-85
2022/10/25 19:34:46;;;;;;;17.27;9.50;;;8.40;99.90;;;;;;8311602;28;20022;-84
2022/10/25 19:38:49;;;;;;;15.00;8.88;;;8.40;99.90;;;;;;8319479;28;20018;-85
2022/10/25 19:42:49;;;;;;;13.07;8.77;;;8.40;99.90;;;;;;8307030;28;20513;-84
2022/10/25 19:46:50;;;;;;;11.23;7.85;;;8.20;99.90;;;;;;8322721;28;20021;-85
2022/10/25 19:50:51;;;;;;;19.27;9.27;;;8.00;99.90;;;;;;8321311;28;20048;-84
2022/10/25 19:54:52;;;;;;;11.38;7.15;;;7.90;99.90;;;;;;8321683;28;20017;-84
2022/10/25 19:58:52;;;;;;;9.02;5.53;;;7.90;99.90;;;;;;8316818;28;20075;-84
2022/10/25 20:02:53;;;;;;;10.30;5.15;;;7.90;99.90;;;;;;8317551;28;20038;-84
2022/10/25 20:06:53;;;;;;;13.82;7.45;;;8.00;99.90;;;;;;8314130;28;20033;-84
2022/10/25 20:10:56;;;;;;;13.15;7.18;;;7.90;99.90;;;;;;8312044;28;20107;-85
2022/10/25 20:14:57;;;;;;;14.20;7.95;;;7.90;99.90;;;;;;8312354;28;20152;-84
2022/10/25 20:18:59;;;;;;;13.95;8.15;;;7.90;99.90;;;;;;8323206;28;20266;-85
2022/10/25 20:23:00;;;;;;;25.42;14.38;;;7.90;99.90;;;;;;8304232;28;20022;-84
2022/10/25 20:27:00;;;;;;;22.55;10.52;;;8.00;99.90;;;;;;8311647;28;20389;-84
2022/10/25 20:31:02;;;;;;;9.77;6.07;;;8.10;99.90;;;;;;8313161;28;20066;-84
2022/10/25 20:35:03;;;;;;;19.00;9.20;;;8.00;99.90;;;;;;8312977;28;20028;-85
2022/10/25 20:39:03;;;;;;;23.58;11.32;;;8.10;99.90;;;;;;8315957;28;20021;-84
2022/10/25 20:43:04;;;;;;;12.10;7.63;;;8.10;99.90;;;;;;8315435;28;20021;-84
2022/10/25 20:47:05;;;;;;;11.15;7.18;;;8.20;99.90;;;;;;8326806;28;20386;-84
2022/10/25 20:51:06;;;;;;;14.18;6.13;;;8.20;99.90;;;;;;8310873;28;20022;-84
2022/10/25 20:55:06;;;;;;;11.40;6.80;;;8.20;99.90;;;;;;8321161;28;20018;-85
2022/10/25 20:59:07;;;;;;;8.48;5.28;;;8.30;99.90;;;;;;8327245;28;20022;-84
2022/10/25 21:03:08;;;;;;;14.20;5.45;;;8.50;99.90;;;;;;8320534;28;20072;-84
2022/10/25 21:07:08;;;;;;;10.20;5.30;;;8.20;99.90;;;;;;8322985;28;20037;-84
2022/10/25 21:11:11;;;;;;;10.07;5.13;;;8.00;99.90;;;;;;8317315;28;20022;-84
2022/10/25 21:15:11;;;;;;;15.05;6.40;;;7.80;99.90;;;;;;8324308;28;20473;-84
2022/10/25 21:19:12;;;;;;;10.77;5.93;;;7.80;99.90;;;;;;8318402;28;20026;-85